Pagrindinis puslapis
METAR-TAF:

METAR-TAF

Oro uostai :

Luxeuil-les-Bains, Prancūzija

platuma: 47-47N, ilguma: 006-21E, Aukštis: 278 m

Dabartinis oras

Ataskaita buvo paskelbta 37 minutes, ne 18:30 UTC
Vėjas 4 kt iš Šiaurės Rytų, svyruoja nuo Šiaurės/Šiaurės Vakarų ir Rytų
Temperatūra 20°C
Drėgmė 30%
Slėgis 1021 hPa
Matomumas 10 km arba daugiau
nėra debesų žemiau 1500 m ir nėra kamuolinių lietaus debesų

METAR: LFSX 091830Z AUTO 04004KT 340V090 CAVOK 20/02 Q1021

Laikas: 21:07 (19:07 UTC)

Prognozė

Ataskaita buvo paskelbta 5 valandos ir 7 minutes, ne 14:00 UTC
Prognozė galioja nuo 09 metu 15 UTC su 10 metu 15 UTC
Vėjas 7 kt iš Vakarų
Matomumas 10 km arba daugiau
nėra debesų žemiau 1500 m ir nėra kamuolinių lietaus debesų

TAF: LFSX 091400Z 0915/1015 26007KT CAVOK

Orai ataskaitas ir orų prognozės (METAR, TAF).

turimą stotys yra geltonos ir raudonos taškus žemėlapyje.

Perkelti pele per norėdami pamatyti stoties vardą.

Tada spustelėkite, norėdami matyti oro stebėjimo ir prognozės.

Norėdami pakeisti žemėlapį: spustelėkite ant žalios mygtukų su juodo kryžiaus žemyn,; žalią mygtuką su brūkšneliu, jei norite nutolinti; arba žalių rodyklių gretimoms žemėlapius.


METAR-TAF: